sensor_id;sensor_type;location;lat;lon;timestamp;P1;durP1;ratioP1;P2;durP2;ratioP2
6983;SDS011;3532;51.118;7.210;2023-02-17T00:00:58;16.67;;;14.47;;
6983;SDS011;3532;51.118;7.210;2023-02-17T00:03:23;18.00;;;14.73;;
6983;SDS011;3532;51.118;7.210;2023-02-17T00:05:49;19.10;;;16.27;;
6983;SDS011;3532;51.118;7.210;2023-02-17T00:08:14;18.70;;;15.77;;
6983;SDS011;3532;51.118;7.210;2023-02-17T00:10:40;17.83;;;16.03;;
6983;SDS011;3532;51.118;7.210;2023-02-17T00:13:05;18.50;;;14.73;;
6983;SDS011;3532;51.118;7.210;2023-02-17T00:15:30;18.17;;;14.20;;
6983;SDS011;3532;51.118;7.210;2023-02-17T00:17:56;16.60;;;14.90;;
6983;SDS011;3532;51.118;7.210;2023-02-17T00:20:21;21.03;;;15.57;;
6983;SDS011;3532;51.118;7.210;2023-02-17T00:22:46;15.87;;;14.17;;
6983;SDS011;3532;51.118;7.210;2023-02-17T00:25:12;16.77;;;14.97;;
6983;SDS011;3532;51.118;7.210;2023-02-17T00:27:37;17.60;;;15.80;;
6983;SDS011;3532;51.118;7.210;2023-02-17T00:30:03;17.47;;;14.47;;
6983;SDS011;3532;51.118;7.210;2023-02-17T00:32:28;17.83;;;15.97;;
6983;SDS011;3532;51.118;7.210;2023-02-17T00:34:53;16.00;;;14.03;;
6983;SDS011;3532;51.118;7.210;2023-02-17T00:37:20;19.00;;;15.43;;
6983;SDS011;3532;51.118;7.210;2023-02-17T00:39:46;16.07;;;13.80;;
6983;SDS011;3532;51.118;7.210;2023-02-17T00:42:11;15.90;;;14.23;;
6983;SDS011;3532;51.118;7.210;2023-02-17T00:44:36;17.57;;;15.27;;
6983;SDS011;3532;51.118;7.210;2023-02-17T00:47:02;16.30;;;14.63;;
6983;SDS011;3532;51.118;7.210;2023-02-17T00:49:27;19.67;;;14.67;;
6983;SDS011;3532;51.118;7.210;2023-02-17T00:51:52;16.03;;;14.23;;
6983;SDS011;3532;51.118;7.210;2023-02-17T00:54:18;16.20;;;14.27;;
6983;SDS011;3532;51.118;7.210;2023-02-17T00:56:43;15.90;;;13.27;;
6983;SDS011;3532;51.118;7.210;2023-02-17T00:59:09;14.57;;;12.97;;
6983;SDS011;3532;51.118;7.210;2023-02-17T01:01:36;16.07;;;14.40;;
6983;SDS011;3532;51.118;7.210;2023-02-17T01:04:02;15.40;;;13.33;;
6983;SDS011;3532;51.118;7.210;2023-02-17T01:06:29;17.33;;;14.40;;
6983;SDS011;3532;51.118;7.210;2023-02-17T01:08:56;15.53;;;13.93;;
6983;SDS011;3532;51.118;7.210;2023-02-17T01:11:24;15.43;;;13.90;;
6983;SDS011;3532;51.118;7.210;2023-02-17T01:13:51;14.60;;;13.07;;
6983;SDS011;3532;51.118;7.210;2023-02-17T01:16:17;14.73;;;13.13;;
6983;SDS011;3532;51.118;7.210;2023-02-17T01:18:44;15.63;;;13.93;;
6983;SDS011;3532;51.118;7.210;2023-02-17T01:21:19;15.27;;;12.67;;
6983;SDS011;3532;51.118;7.210;2023-02-17T01:23:50;16.67;;;13.03;;
6983;SDS011;3532;51.118;7.210;2023-02-17T01:26:17;18.07;;;13.30;;
6983;SDS011;3532;51.118;7.210;2023-02-17T01:28:44;18.83;;;13.37;;
6983;SDS011;3532;51.118;7.210;2023-02-17T01:31:10;14.10;;;12.63;;
6983;SDS011;3532;51.118;7.210;2023-02-17T01:33:36;15.63;;;14.03;;
6983;SDS011;3532;51.118;7.210;2023-02-17T01:36:03;16.70;;;13.70;;
6983;SDS011;3532;51.118;7.210;2023-02-17T01:38:29;15.97;;;14.10;;
6983;SDS011;3532;51.118;7.210;2023-02-17T01:40:54;15.30;;;13.70;;
6983;SDS011;3532;51.118;7.210;2023-02-17T01:43:20;15.03;;;12.77;;
6983;SDS011;3532;51.118;7.210;2023-02-17T01:45:55;15.27;;;13.67;;
6983;SDS011;3532;51.118;7.210;2023-02-17T01:48:23;18.10;;;13.53;;
6983;SDS011;3532;51.118;7.210;2023-02-17T01:50:52;16.47;;;14.37;;
6983;SDS011;3532;51.118;7.210;2023-02-17T01:53:20;14.93;;;12.17;;
6983;SDS011;3532;51.118;7.210;2023-02-17T01:55:48;15.10;;;12.83;;
6983;SDS011;3532;51.118;7.210;2023-02-17T01:58:15;14.13;;;12.67;;
6983;SDS011;3532;51.118;7.210;2023-02-17T02:00:43;15.17;;;12.77;;
6983;SDS011;3532;51.118;7.210;2023-02-17T02:03:09;14.30;;;11.93;;
6983;SDS011;3532;51.118;7.210;2023-02-17T02:05:37;13.67;;;11.73;;
6983;SDS011;3532;51.118;7.210;2023-02-17T02:08:04;15.20;;;12.33;;
6983;SDS011;3532;51.118;7.210;2023-02-17T02:10:29;13.87;;;12.47;;
6983;SDS011;3532;51.118;7.210;2023-02-17T02:12:55;15.83;;;12.67;;
6983;SDS011;3532;51.118;7.210;2023-02-17T02:15:20;13.57;;;12.17;;
6983;SDS011;3532;51.118;7.210;2023-02-17T02:20:31;13.60;;;12.03;;
6983;SDS011;3532;51.118;7.210;2023-02-17T02:28:46;15.50;;;11.57;;
6983;SDS011;3532;51.118;7.210;2023-02-17T02:34:02;15.60;;;11.87;;
6983;SDS011;3532;51.118;7.210;2023-02-17T02:36:36;12.37;;;11.07;;
6983;SDS011;3532;51.118;7.210;2023-02-17T02:39:18;12.87;;;11.27;;
6983;SDS011;3532;51.118;7.210;2023-02-17T02:41:45;15.80;;;12.87;;
6983;SDS011;3532;51.118;7.210;2023-02-17T02:44:13;14.47;;;11.57;;
6983;SDS011;3532;51.118;7.210;2023-02-17T02:46:40;16.03;;;11.93;;
6983;SDS011;3532;51.118;7.210;2023-02-17T02:49:05;13.80;;;12.30;;
6983;SDS011;3532;51.118;7.210;2023-02-17T02:54:15;12.37;;;11.20;;
6983;SDS011;3532;51.118;7.210;2023-02-17T02:56:50;13.30;;;11.97;;
6983;SDS011;3532;51.118;7.210;2023-02-17T03:01:53;13.43;;;12.03;;
6983;SDS011;3532;51.118;7.210;2023-02-17T03:04:29;14.93;;;13.40;;
6983;SDS011;3532;51.118;7.210;2023-02-17T03:07:14;14.03;;;12.73;;
6983;SDS011;3532;51.118;7.210;2023-02-17T03:09:49;14.47;;;12.97;;
6983;SDS011;3532;51.118;7.210;2023-02-17T03:12:16;14.03;;;12.10;;
6983;SDS011;3532;51.118;7.210;2023-02-17T03:14:42;13.20;;;11.90;;
6983;SDS011;3532;51.118;7.210;2023-02-17T03:17:08;13.87;;;12.30;;
6983;SDS011;3532;51.118;7.210;2023-02-17T03:19:33;17.03;;;11.37;;
6983;SDS011;3532;51.118;7.210;2023-02-17T03:24:47;13.40;;;11.67;;
6983;SDS011;3532;51.118;7.210;2023-02-17T03:27:13;13.43;;;12.07;;
6983;SDS011;3532;51.118;7.210;2023-02-17T03:29:38;14.57;;;12.73;;
6983;SDS011;3532;51.118;7.210;2023-02-17T03:32:04;14.97;;;12.53;;
6983;SDS011;3532;51.118;7.210;2023-02-17T03:34:29;14.63;;;12.63;;
6983;SDS011;3532;51.118;7.210;2023-02-17T03:36:55;14.87;;;12.60;;
6983;SDS011;3532;51.118;7.210;2023-02-17T03:39:20;12.63;;;11.33;;
6983;SDS011;3532;51.118;7.210;2023-02-17T03:41:45;13.60;;;12.03;;
6983;SDS011;3532;51.118;7.210;2023-02-17T03:44:14;14.63;;;11.57;;
6983;SDS011;3532;51.118;7.210;2023-02-17T03:46:39;12.20;;;10.97;;
6983;SDS011;3532;51.118;7.210;2023-02-17T03:49:05;12.60;;;11.30;;
6983;SDS011;3532;51.118;7.210;2023-02-17T03:51:30;13.13;;;11.83;;
6983;SDS011;3532;51.118;7.210;2023-02-17T03:53:55;14.57;;;12.50;;
6983;SDS011;3532;51.118;7.210;2023-02-17T03:56:21;13.80;;;11.40;;
6983;SDS011;3532;51.118;7.210;2023-02-17T03:58:46;12.57;;;11.27;;
6983;SDS011;3532;51.118;7.210;2023-02-17T04:01:12;13.67;;;12.20;;
6983;SDS011;3532;51.118;7.210;2023-02-17T04:03:38;12.73;;;11.53;;
6983;SDS011;3532;51.118;7.210;2023-02-17T04:06:04;12.90;;;11.57;;
6983;SDS011;3532;51.118;7.210;2023-02-17T04:08:30;13.60;;;12.03;;
6983;SDS011;3532;51.118;7.210;2023-02-17T04:10:57;13.57;;;12.17;;
6983;SDS011;3532;51.118;7.210;2023-02-17T04:13:23;12.70;;;11.40;;
6983;SDS011;3532;51.118;7.210;2023-02-17T04:15:49;12.47;;;11.00;;
6983;SDS011;3532;51.118;7.210;2023-02-17T04:18:15;13.17;;;11.87;;
6983;SDS011;3532;51.118;7.210;2023-02-17T04:20:40;12.77;;;11.30;;
6983;SDS011;3532;51.118;7.210;2023-02-17T04:23:06;12.40;;;11.10;;
6983;SDS011;3532;51.118;7.210;2023-02-17T04:25:35;12.33;;;11.10;;
6983;SDS011;3532;51.118;7.210;2023-02-17T04:28:01;13.23;;;11.83;;
6983;SDS011;3532;51.118;7.210;2023-02-17T04:30:27;12.53;;;11.33;;
6983;SDS011;3532;51.118;7.210;2023-02-17T04:32:52;14.23;;;11.03;;
6983;SDS011;3532;51.118;7.210;2023-02-17T04:35:18;12.37;;;11.20;;
6983;SDS011;3532;51.118;7.210;2023-02-17T04:37:43;12.30;;;11.00;;
6983;SDS011;3532;51.118;7.210;2023-02-17T04:40:08;11.77;;;10.57;;
6983;SDS011;3532;51.118;7.210;2023-02-17T04:42:35;11.53;;;10.43;;
6983;SDS011;3532;51.118;7.210;2023-02-17T04:45:00;10.87;;;9.80;;
6983;SDS011;3532;51.118;7.210;2023-02-17T04:47:26;12.20;;;10.97;;
6983;SDS011;3532;51.118;7.210;2023-02-17T04:49:52;11.87;;;10.67;;
6983;SDS011;3532;51.118;7.210;2023-02-17T04:52:17;10.70;;;9.63;;
6983;SDS011;3532;51.118;7.210;2023-02-17T04:54:42;11.80;;;10.63;;
6983;SDS011;3532;51.118;7.210;2023-02-17T04:57:08;11.43;;;10.30;;
6983;SDS011;3532;51.118;7.210;2023-02-17T04:59:33;11.50;;;10.30;;
6983;SDS011;3532;51.118;7.210;2023-02-17T05:01:58;10.33;;;9.33;;
6983;SDS011;3532;51.118;7.210;2023-02-17T05:04:24;10.77;;;9.67;;
6983;SDS011;3532;51.118;7.210;2023-02-17T05:06:49;11.97;;;10.70;;
6983;SDS011;3532;51.118;7.210;2023-02-17T05:09:14;12.13;;;10.87;;
6983;SDS011;3532;51.118;7.210;2023-02-17T05:11:39;12.00;;;10.83;;
6983;SDS011;3532;51.118;7.210;2023-02-17T05:14:05;12.20;;;10.90;;
6983;SDS011;3532;51.118;7.210;2023-02-17T05:16:30;11.60;;;10.40;;
6983;SDS011;3532;51.118;7.210;2023-02-17T05:18:55;12.10;;;10.67;;
6983;SDS011;3532;51.118;7.210;2023-02-17T05:21:21;12.43;;;11.07;;
6983;SDS011;3532;51.118;7.210;2023-02-17T05:23:46;11.20;;;10.07;;
6983;SDS011;3532;51.118;7.210;2023-02-17T05:26:11;10.80;;;9.67;;
6983;SDS011;3532;51.118;7.210;2023-02-17T05:28:37;11.80;;;10.40;;
6983;SDS011;3532;51.118;7.210;2023-02-17T05:31:02;12.43;;;11.23;;
6983;SDS011;3532;51.118;7.210;2023-02-17T05:33:28;11.93;;;9.97;;
6983;SDS011;3532;51.118;7.210;2023-02-17T05:35:53;11.00;;;9.90;;
6983;SDS011;3532;51.118;7.210;2023-02-17T05:38:19;11.03;;;10.03;;
6983;SDS011;3532;51.118;7.210;2023-02-17T05:40:44;11.47;;;10.27;;
6983;SDS011;3532;51.118;7.210;2023-02-17T05:43:10;10.83;;;9.83;;
6983;SDS011;3532;51.118;7.210;2023-02-17T05:45:35;10.93;;;9.93;;
6983;SDS011;3532;51.118;7.210;2023-02-17T05:48:01;12.10;;;10.63;;
6983;SDS011;3532;51.118;7.210;2023-02-17T05:50:26;11.13;;;10.03;;
6983;SDS011;3532;51.118;7.210;2023-02-17T05:52:51;12.60;;;11.33;;
6983;SDS011;3532;51.118;7.210;2023-02-17T05:55:17;12.17;;;10.80;;
6983;SDS011;3532;51.118;7.210;2023-02-17T05:57:42;11.60;;;10.40;;
6983;SDS011;3532;51.118;7.210;2023-02-17T06:00:07;11.73;;;10.57;;
6983;SDS011;3532;51.118;7.210;2023-02-17T06:02:33;12.53;;;11.23;;
6983;SDS011;3532;51.118;7.210;2023-02-17T06:04:58;11.53;;;10.37;;
6983;SDS011;3532;51.118;7.210;2023-02-17T06:07:24;11.97;;;10.23;;
6983;SDS011;3532;51.118;7.210;2023-02-17T06:09:49;11.23;;;10.20;;
6983;SDS011;3532;51.118;7.210;2023-02-17T06:12:14;11.97;;;10.87;;
6983;SDS011;3532;51.118;7.210;2023-02-17T06:14:39;12.27;;;11.07;;
6983;SDS011;3532;51.118;7.210;2023-02-17T06:17:05;13.23;;;11.37;;
6983;SDS011;3532;51.118;7.210;2023-02-17T06:19:30;13.40;;;10.93;;
6983;SDS011;3532;51.118;7.210;2023-02-17T06:21:55;11.27;;;10.13;;
6983;SDS011;3532;51.118;7.210;2023-02-17T06:24:21;12.00;;;10.67;;
6983;SDS011;3532;51.118;7.210;2023-02-17T06:26:46;11.93;;;10.73;;
6983;SDS011;3532;51.118;7.210;2023-02-17T06:29:12;13.23;;;10.33;;
6983;SDS011;3532;51.118;7.210;2023-02-17T06:31:37;12.33;;;10.97;;
6983;SDS011;3532;51.118;7.210;2023-02-17T06:34:02;11.50;;;10.23;;
6983;SDS011;3532;51.118;7.210;2023-02-17T06:36:28;10.80;;;9.70;;
6983;SDS011;3532;51.118;7.210;2023-02-17T06:38:53;11.97;;;10.10;;
6983;SDS011;3532;51.118;7.210;2023-02-17T06:41:18;10.97;;;9.87;;
6983;SDS011;3532;51.118;7.210;2023-02-17T06:43:44;11.77;;;9.97;;
6983;SDS011;3532;51.118;7.210;2023-02-17T06:46:09;10.60;;;9.40;;
6983;SDS011;3532;51.118;7.210;2023-02-17T06:48:34;11.50;;;10.40;;
6983;SDS011;3532;51.118;7.210;2023-02-17T06:51:00;11.30;;;10.10;;
6983;SDS011;3532;51.118;7.210;2023-02-17T06:53:25;10.37;;;9.30;;
6983;SDS011;3532;51.118;7.210;2023-02-17T06:55:50;10.40;;;9.40;;
6983;SDS011;3532;51.118;7.210;2023-02-17T06:58:15;10.63;;;9.63;;
6983;SDS011;3532;51.118;7.210;2023-02-17T07:00:41;11.60;;;10.07;;
6983;SDS011;3532;51.118;7.210;2023-02-17T07:03:06;10.73;;;9.67;;
6983;SDS011;3532;51.118;7.210;2023-02-17T07:05:35;11.93;;;9.13;;
6983;SDS011;3532;51.118;7.210;2023-02-17T07:08:00;9.47;;;8.57;;
6983;SDS011;3532;51.118;7.210;2023-02-17T07:10:26;12.17;;;10.50;;
6983;SDS011;3532;51.118;7.210;2023-02-17T07:12:52;11.47;;;9.43;;
6983;SDS011;3532;51.118;7.210;2023-02-17T07:15:17;10.43;;;9.43;;
6983;SDS011;3532;51.118;7.210;2023-02-17T07:17:42;11.47;;;9.57;;
6983;SDS011;3532;51.118;7.210;2023-02-17T07:20:08;11.37;;;10.13;;
6983;SDS011;3532;51.118;7.210;2023-02-17T07:22:33;11.47;;;10.40;;
6983;SDS011;3532;51.118;7.210;2023-02-17T07:24:59;16.97;;;10.17;;
6983;SDS011;3532;51.118;7.210;2023-02-17T07:27:24;11.40;;;10.30;;
6983;SDS011;3532;51.118;7.210;2023-02-17T07:29:49;11.40;;;10.30;;
6983;SDS011;3532;51.118;7.210;2023-02-17T07:32:15;11.33;;;10.27;;
6983;SDS011;3532;51.118;7.210;2023-02-17T07:34:40;12.83;;;10.50;;
6983;SDS011;3532;51.118;7.210;2023-02-17T07:37:06;10.80;;;9.70;;
6983;SDS011;3532;51.118;7.210;2023-02-17T07:39:32;15.43;;;10.03;;
6983;SDS011;3532;51.118;7.210;2023-02-17T07:41:58;13.93;;;11.17;;
6983;SDS011;3532;51.118;7.210;2023-02-17T07:44:25;12.43;;;9.90;;
6983;SDS011;3532;51.118;7.210;2023-02-17T07:46:51;13.20;;;11.90;;
6983;SDS011;3532;51.118;7.210;2023-02-17T07:49:17;12.07;;;10.83;;
6983;SDS011;3532;51.118;7.210;2023-02-17T07:51:42;11.13;;;10.10;;
6983;SDS011;3532;51.118;7.210;2023-02-17T07:54:08;12.47;;;11.17;;
6983;SDS011;3532;51.118;7.210;2023-02-17T07:56:33;13.47;;;10.93;;
6983;SDS011;3532;51.118;7.210;2023-02-17T07:58:58;15.50;;;12.07;;
6983;SDS011;3532;51.118;7.210;2023-02-17T08:01:24;15.63;;;11.77;;
6983;SDS011;3532;51.118;7.210;2023-02-17T08:03:50;12.53;;;11.10;;
6983;SDS011;3532;51.118;7.210;2023-02-17T08:06:19;12.67;;;11.43;;
6983;SDS011;3532;51.118;7.210;2023-02-17T08:08:46;14.63;;;12.60;;
6983;SDS011;3532;51.118;7.210;2023-02-17T08:11:31;13.33;;;11.50;;
6983;SDS011;3532;51.118;7.210;2023-02-17T08:14:15;12.20;;;11.00;;
6983;SDS011;3532;51.118;7.210;2023-02-17T08:16:40;12.37;;;11.07;;
6983;SDS011;3532;51.118;7.210;2023-02-17T08:19:06;11.67;;;10.47;;
6983;SDS011;3532;51.118;7.210;2023-02-17T08:21:31;12.70;;;10.93;;
6983;SDS011;3532;51.118;7.210;2023-02-17T08:23:57;11.73;;;10.53;;
6983;SDS011;3532;51.118;7.210;2023-02-17T08:26:22;14.27;;;12.17;;
6983;SDS011;3532;51.118;7.210;2023-02-17T08:28:48;12.53;;;11.10;;
6983;SDS011;3532;51.118;7.210;2023-02-17T08:34:06;16.60;;;11.20;;
6983;SDS011;3532;51.118;7.210;2023-02-17T08:36:33;12.93;;;11.57;;
6983;SDS011;3532;51.118;7.210;2023-02-17T08:38:58;13.63;;;11.57;;
6983;SDS011;3532;51.118;7.210;2023-02-17T08:41:28;13.83;;;12.43;;
6983;SDS011;3532;51.118;7.210;2023-02-17T08:43:55;15.07;;;12.20;;
6983;SDS011;3532;51.118;7.210;2023-02-17T08:46:20;14.57;;;12.00;;
6983;SDS011;3532;51.118;7.210;2023-02-17T08:48:46;14.43;;;11.47;;
6983;SDS011;3532;51.118;7.210;2023-02-17T08:51:13;13.67;;;12.13;;
6983;SDS011;3532;51.118;7.210;2023-02-17T08:53:39;13.53;;;11.67;;
6983;SDS011;3532;51.118;7.210;2023-02-17T08:56:05;12.53;;;11.33;;
6983;SDS011;3532;51.118;7.210;2023-02-17T08:58:31;13.63;;;12.17;;
6983;SDS011;3532;51.118;7.210;2023-02-17T09:00:57;12.20;;;11.03;;
6983;SDS011;3532;51.118;7.210;2023-02-17T09:03:22;12.97;;;11.47;;
6983;SDS011;3532;51.118;7.210;2023-02-17T09:05:47;13.40;;;11.37;;
6983;SDS011;3532;51.118;7.210;2023-02-17T09:08:13;12.03;;;9.43;;
6983;SDS011;3532;51.118;7.210;2023-02-17T09:10:38;10.63;;;9.50;;
6983;SDS011;3532;51.118;7.210;2023-02-17T09:13:04;9.90;;;8.97;;
6983;SDS011;3532;51.118;7.210;2023-02-17T09:15:29;10.40;;;8.93;;
6983;SDS011;3532;51.118;7.210;2023-02-17T09:17:54;9.03;;;8.13;;
6983;SDS011;3532;51.118;7.210;2023-02-17T09:20:20;9.90;;;8.83;;
6983;SDS011;3532;51.118;7.210;2023-02-17T09:22:45;9.50;;;8.60;;
6983;SDS011;3532;51.118;7.210;2023-02-17T09:25:11;9.80;;;8.90;;
6983;SDS011;3532;51.118;7.210;2023-02-17T09:27:36;9.17;;;7.63;;
6983;SDS011;3532;51.118;7.210;2023-02-17T09:30:01;9.17;;;7.67;;
6983;SDS011;3532;51.118;7.210;2023-02-17T09:32:27;8.03;;;7.23;;
6983;SDS011;3532;51.118;7.210;2023-02-17T09:34:52;8.07;;;7.27;;
6983;SDS011;3532;51.118;7.210;2023-02-17T09:37:18;8.83;;;8.03;;
6983;SDS011;3532;51.118;7.210;2023-02-17T09:39:44;8.13;;;7.33;;
6983;SDS011;3532;51.118;7.210;2023-02-17T09:42:21;9.30;;;8.37;;
6983;SDS011;3532;51.118;7.210;2023-02-17T09:44:48;9.93;;;7.40;;
6983;SDS011;3532;51.118;7.210;2023-02-17T09:47:23;10.07;;;7.53;;
6983;SDS011;3532;51.118;7.210;2023-02-17T09:49:53;7.60;;;6.90;;
6983;SDS011;3532;51.118;7.210;2023-02-17T09:55:30;9.03;;;7.43;;
6983;SDS011;3532;51.118;7.210;2023-02-17T09:58:00;7.13;;;6.37;;
6983;SDS011;3532;51.118;7.210;2023-02-17T10:00:38;7.00;;;6.30;;
6983;SDS011;3532;51.118;7.210;2023-02-17T10:03:19;5.87;;;5.27;;
6983;SDS011;3532;51.118;7.210;2023-02-17T10:06:00;6.53;;;6.00;;
6983;SDS011;3532;51.118;7.210;2023-02-17T10:08:34;6.60;;;5.87;;
6983;SDS011;3532;51.118;7.210;2023-02-17T10:11:31;6.87;;;6.10;;
6983;SDS011;3532;51.118;7.210;2023-02-17T10:14:01;6.80;;;6.03;;
6983;SDS011;3532;51.118;7.210;2023-02-17T10:16:52;6.70;;;5.70;;
6983;SDS011;3532;51.118;7.210;2023-02-17T10:19:24;6.97;;;6.00;;
6983;SDS011;3532;51.118;7.210;2023-02-17T10:22:13;8.73;;;6.37;;
6983;SDS011;3532;51.118;7.210;2023-02-17T10:24:40;5.67;;;5.17;;
6983;SDS011;3532;51.118;7.210;2023-02-17T10:27:14;5.50;;;5.00;;
6983;SDS011;3532;51.118;7.210;2023-02-17T10:32:51;6.43;;;5.43;;
6983;SDS011;3532;51.118;7.210;2023-02-17T10:40:43;5.47;;;4.97;;
6983;SDS011;3532;51.118;7.210;2023-02-17T10:43:10;5.50;;;4.90;;
6983;SDS011;3532;51.118;7.210;2023-02-17T10:45:39;5.63;;;4.97;;
6983;SDS011;3532;51.118;7.210;2023-02-17T10:51:26;6.83;;;5.07;;
6983;SDS011;3532;51.118;7.210;2023-02-17T10:54:01;5.37;;;4.87;;
6983;SDS011;3532;51.118;7.210;2023-02-17T10:56:31;5.43;;;4.10;;
6983;SDS011;3532;51.118;7.210;2023-02-17T11:01:49;5.67;;;4.97;;
6983;SDS011;3532;51.118;7.210;2023-02-17T11:04:15;5.03;;;4.57;;
6983;SDS011;3532;51.118;7.210;2023-02-17T11:06:44;6.03;;;5.47;;
6983;SDS011;3532;51.118;7.210;2023-02-17T11:09:17;5.10;;;4.70;;
6983;SDS011;3532;51.118;7.210;2023-02-17T11:11:50;4.93;;;4.50;;
6983;SDS011;3532;51.118;7.210;2023-02-17T11:14:20;6.00;;;4.30;;
6983;SDS011;3532;51.118;7.210;2023-02-17T11:16:54;7.60;;;5.33;;
6983;SDS011;3532;51.118;7.210;2023-02-17T11:21:55;6.47;;;5.40;;
6983;SDS011;3532;51.118;7.210;2023-02-17T11:24:22;6.07;;;5.40;;
6983;SDS011;3532;51.118;7.210;2023-02-17T11:26:55;6.17;;;5.43;;
6983;SDS011;3532;51.118;7.210;2023-02-17T11:29:23;4.83;;;4.43;;
6983;SDS011;3532;51.118;7.210;2023-02-17T11:31:52;5.57;;;5.07;;
6983;SDS011;3532;51.118;7.210;2023-02-17T11:34:27;5.67;;;4.63;;
6983;SDS011;3532;51.118;7.210;2023-02-17T11:39:40;4.53;;;4.07;;
6983;SDS011;3532;51.118;7.210;2023-02-17T11:42:14;6.23;;;4.37;;
6983;SDS011;3532;51.118;7.210;2023-02-17T11:44:40;5.87;;;4.83;;
6983;SDS011;3532;51.118;7.210;2023-02-17T11:55:14;3.70;;;3.30;;
6983;SDS011;3532;51.118;7.210;2023-02-17T11:57:43;3.53;;;3.23;;
6983;SDS011;3532;51.118;7.210;2023-02-17T12:11:18;3.80;;;3.50;;
6983;SDS011;3532;51.118;7.210;2023-02-17T12:14:54;4.03;;;3.57;;
6983;SDS011;3532;51.118;7.210;2023-02-17T12:22:21;3.90;;;3.60;;
6983;SDS011;3532;51.118;7.210;2023-02-17T12:27:51;4.67;;;4.17;;
6983;SDS011;3532;51.118;7.210;2023-02-17T12:30:37;4.37;;;3.40;;
6983;SDS011;3532;51.118;7.210;2023-02-17T12:33:25;4.37;;;3.33;;
6983;SDS011;3532;51.118;7.210;2023-02-17T12:36:12;4.43;;;4.03;;
6983;SDS011;3532;51.118;7.210;2023-02-17T12:38:44;4.23;;;3.17;;
6983;SDS011;3532;51.118;7.210;2023-02-17T12:41:18;4.10;;;3.70;;
6983;SDS011;3532;51.118;7.210;2023-02-17T12:46:26;4.13;;;3.40;;
6983;SDS011;3532;51.118;7.210;2023-02-17T12:51:53;4.60;;;3.73;;
6983;SDS011;3532;51.118;7.210;2023-02-17T12:54:27;8.73;;;3.83;;
6983;SDS011;3532;51.118;7.210;2023-02-17T12:59:45;4.43;;;3.77;;
6983;SDS011;3532;51.118;7.210;2023-02-17T13:04:51;4.87;;;3.87;;
6983;SDS011;3532;51.118;7.210;2023-02-17T13:10:01;4.30;;;3.33;;
6983;SDS011;3532;51.118;7.210;2023-02-17T13:12:30;6.53;;;3.87;;
6983;SDS011;3532;51.118;7.210;2023-02-17T13:15:03;3.93;;;3.20;;
6983;SDS011;3532;51.118;7.210;2023-02-17T13:22:30;6.23;;;4.23;;
6983;SDS011;3532;51.118;7.210;2023-02-17T13:24:55;4.80;;;3.87;;
6983;SDS011;3532;51.118;7.210;2023-02-17T13:27:22;5.80;;;3.83;;
6983;SDS011;3532;51.118;7.210;2023-02-17T13:32:33;4.20;;;3.80;;
6983;SDS011;3532;51.118;7.210;2023-02-17T13:35:01;5.87;;;3.73;;
6983;SDS011;3532;51.118;7.210;2023-02-17T13:39:58;9.03;;;5.03;;
6983;SDS011;3532;51.118;7.210;2023-02-17T13:45:20;4.93;;;4.30;;
6983;SDS011;3532;51.118;7.210;2023-02-17T13:47:48;5.27;;;4.00;;
6983;SDS011;3532;51.118;7.210;2023-02-17T13:50:24;4.53;;;3.80;;
6983;SDS011;3532;51.118;7.210;2023-02-17T13:52:58;5.70;;;4.50;;
6983;SDS011;3532;51.118;7.210;2023-02-17T13:55:24;5.50;;;4.50;;
6983;SDS011;3532;51.118;7.210;2023-02-17T13:57:51;7.93;;;4.10;;
6983;SDS011;3532;51.118;7.210;2023-02-17T14:00:22;5.57;;;4.07;;
6983;SDS011;3532;51.118;7.210;2023-02-17T14:03:34;4.57;;;4.10;;
6983;SDS011;3532;51.118;7.210;2023-02-17T14:05:43;4.93;;;4.43;;
6983;SDS011;3532;51.118;7.210;2023-02-17T14:08:17;4.60;;;4.20;;
6983;SDS011;3532;51.118;7.210;2023-02-17T14:11:00;4.87;;;3.70;;
6983;SDS011;3532;51.118;7.210;2023-02-17T14:13:37;6.30;;;3.67;;
6983;SDS011;3532;51.118;7.210;2023-02-17T14:16:03;5.90;;;3.53;;
6983;SDS011;3532;51.118;7.210;2023-02-17T14:18:35;6.70;;;4.03;;
6983;SDS011;3532;51.118;7.210;2023-02-17T14:23:38;4.53;;;3.93;;
6983;SDS011;3532;51.118;7.210;2023-02-17T14:26:09;6.43;;;4.20;;
6983;SDS011;3532;51.118;7.210;2023-02-17T14:28:36;4.07;;;3.73;;
6983;SDS011;3532;51.118;7.210;2023-02-17T14:31:06;5.03;;;3.90;;
6983;SDS011;3532;51.118;7.210;2023-02-17T14:33:35;3.57;;;3.27;;
6983;SDS011;3532;51.118;7.210;2023-02-17T14:36:01;6.57;;;4.27;;
6983;SDS011;3532;51.118;7.210;2023-02-17T14:38:31;7.07;;;4.57;;
6983;SDS011;3532;51.118;7.210;2023-02-17T14:40:59;4.43;;;4.03;;
6983;SDS011;3532;51.118;7.210;2023-02-17T14:43:25;4.37;;;3.97;;
6983;SDS011;3532;51.118;7.210;2023-02-17T14:45:50;4.27;;;3.87;;
6983;SDS011;3532;51.118;7.210;2023-02-17T14:48:16;6.50;;;4.37;;
6983;SDS011;3532;51.118;7.210;2023-02-17T14:50:41;5.70;;;4.53;;
6983;SDS011;3532;51.118;7.210;2023-02-17T14:55:49;6.83;;;4.10;;
6983;SDS011;3532;51.118;7.210;2023-02-17T14:58:18;8.47;;;4.00;;
6983;SDS011;3532;51.118;7.210;2023-02-17T15:00:45;6.40;;;4.60;;
6983;SDS011;3532;51.118;7.210;2023-02-17T15:03:11;5.47;;;3.70;;
6983;SDS011;3532;51.118;7.210;2023-02-17T15:05:36;8.07;;;3.70;;
6983;SDS011;3532;51.118;7.210;2023-02-17T15:08:01;8.03;;;4.63;;
6983;SDS011;3532;51.118;7.210;2023-02-17T15:10:27;8.60;;;4.03;;
6983;SDS011;3532;51.118;7.210;2023-02-17T15:12:53;13.57;;;3.70;;
6983;SDS011;3532;51.118;7.210;2023-02-17T15:15:19;14.77;;;4.00;;
6983;SDS011;3532;51.118;7.210;2023-02-17T15:17:45;7.13;;;3.57;;
6983;SDS011;3532;51.118;7.210;2023-02-17T15:20:10;9.37;;;3.83;;
6983;SDS011;3532;51.118;7.210;2023-02-17T15:22:36;10.33;;;3.40;;
6983;SDS011;3532;51.118;7.210;2023-02-17T15:25:10;6.63;;;3.40;;
6983;SDS011;3532;51.118;7.210;2023-02-17T15:27:38;8.57;;;3.00;;
6983;SDS011;3532;51.118;7.210;2023-02-17T15:30:04;5.47;;;2.87;;
6983;SDS011;3532;51.118;7.210;2023-02-17T15:32:30;3.73;;;2.70;;
6983;SDS011;3532;51.118;7.210;2023-02-17T15:34:55;4.00;;;3.30;;
6983;SDS011;3532;51.118;7.210;2023-02-17T15:37:21;5.53;;;3.20;;
6983;SDS011;3532;51.118;7.210;2023-02-17T15:39:46;6.33;;;2.57;;
6983;SDS011;3532;51.118;7.210;2023-02-17T15:42:12;3.40;;;3.10;;
6983;SDS011;3532;51.118;7.210;2023-02-17T15:44:39;3.17;;;2.87;;
6983;SDS011;3532;51.118;7.210;2023-02-17T15:47:08;3.60;;;3.10;;
6983;SDS011;3532;51.118;7.210;2023-02-17T15:49:40;3.20;;;2.63;;
6983;SDS011;3532;51.118;7.210;2023-02-17T15:52:12;5.40;;;3.00;;
6983;SDS011;3532;51.118;7.210;2023-02-17T15:54:38;3.37;;;2.90;;
6983;SDS011;3532;51.118;7.210;2023-02-17T15:57:05;5.47;;;3.13;;
6983;SDS011;3532;51.118;7.210;2023-02-17T15:59:31;4.10;;;2.67;;
6983;SDS011;3532;51.118;7.210;2023-02-17T16:01:57;2.90;;;2.50;;
6983;SDS011;3532;51.118;7.210;2023-02-17T16:04:26;3.23;;;2.93;;
6983;SDS011;3532;51.118;7.210;2023-02-17T16:06:52;5.47;;;3.03;;
6983;SDS011;3532;51.118;7.210;2023-02-17T16:09:17;3.33;;;2.50;;
6983;SDS011;3532;51.118;7.210;2023-02-17T16:11:49;3.37;;;3.07;;
6983;SDS011;3532;51.118;7.210;2023-02-17T16:14:27;3.20;;;2.90;;
6983;SDS011;3532;51.118;7.210;2023-02-17T16:16:58;2.80;;;2.60;;
6983;SDS011;3532;51.118;7.210;2023-02-17T16:19:23;3.70;;;2.90;;
6983;SDS011;3532;51.118;7.210;2023-02-17T16:21:49;3.70;;;3.23;;
6983;SDS011;3532;51.118;7.210;2023-02-17T16:24:14;3.00;;;2.50;;
6983;SDS011;3532;51.118;7.210;2023-02-17T16:26:39;3.50;;;3.20;;
6983;SDS011;3532;51.118;7.210;2023-02-17T16:29:15;3.90;;;3.60;;
6983;SDS011;3532;51.118;7.210;2023-02-17T16:31:42;4.83;;;2.90;;
6983;SDS011;3532;51.118;7.210;2023-02-17T16:34:12;3.90;;;3.40;;
6983;SDS011;3532;51.118;7.210;2023-02-17T16:36:39;4.10;;;3.47;;
6983;SDS011;3532;51.118;7.210;2023-02-17T16:39:12;4.37;;;3.33;;
6983;SDS011;3532;51.118;7.210;2023-02-17T16:41:38;4.83;;;3.67;;
6983;SDS011;3532;51.118;7.210;2023-02-17T16:44:03;4.07;;;3.50;;
6983;SDS011;3532;51.118;7.210;2023-02-17T16:46:30;4.07;;;3.50;;
6983;SDS011;3532;51.118;7.210;2023-02-17T16:48:57;5.43;;;3.30;;